Rms Voerde — V2AD8 — position and weather

sailwx.info

Track history (hours):
 
Tides and Currents Weather Stations Pressure Air Temp Water Temp Dewpoint Dewpoint Depression Visibility Wind Speed Wind Dir Waves Ship Positions

Rms Voerde

Last reported at 2017-Feb-21 20:06 UTC. Time now 2017-Feb-23 02:28 UTC.
Position N 36°01' W 005°11'.

Length 90 m; draft 4.3 m.

Type: Ship. MMSI: 304010905.

Date/timePositionNaut miles runAvg speedWind from/ knotsBaromVisibWave heightAir tempDewpointWater temp
2017-Feb-21 20:06N 36°01' W 005°11'4 6.5
2017-Feb-21 19:33N 36°01' W 005°15'6 6.3
2017-Feb-21 18:33N 35°59' W 005°23'7 7.0
2017-Feb-21 17:33N 35°57' W 005°31'8 7.5
2017-Feb-21 16:27N 35°55' W 005°41'277 6.0
2017-Feb-19 18:31N 38°55' W 010°06'10 9.9
2017-Feb-19 17:32N 39°04' W 010°06'1210.1
2017-Feb-19 16:22N 39°16' W 010°07'810.2
2017-Feb-19 15:33N 39°24' W 010°06'  
2017-Feb-16 15:32N 49°47' W 003°31'1111.0
2017-Feb-16 14:33N 49°53' W 003°16'1010.3
2017-Feb-16 13:33N 49°58' W 003°02'9 9.3
2017-Feb-16 12:33N 50°01' W 002°49'9610.3
2017-Feb-16 03:16N 50°28' W 000°24'810.6
2017-Feb-16 02:33N 50°30' W 000°13'10 9.7
2017-Feb-16 01:30N 50°33' E 000°03'8 8.7
2017-Feb-16 00:33N 50°35' E 000°15'38 9.5
2017-Feb-15 20:33N 50°53' E 001°07'1111.2
2017-Feb-15 19:33N 51°01' E 001°21'1010.0
2017-Feb-15 18:33N 51°07' E 001°33'8 8.4
2017-Feb-15 17:33N 51°12' E 001°43'8 8.1
2017-Feb-15 16:33N 51°19' E 001°51'8 7.8
2017-Feb-15 15:33N 51°25' E 001°59'9 9.1
2017-Feb-15 14:33N 51°22' E 002°13'9 8.7
2017-Feb-15 13:29N 51°23' E 002°28'1010.1
2017-Feb-15 12:29N 51°22' E 002°44'1011.2
2017-Feb-15 11:33N 51°24' E 003°00'1111.1
2017-Feb-15 10:33N 51°25' E 003°18'1211.7
2017-Feb-15 09:33N 51°26' E 003°36'1010.1
2017-Feb-15 08:33N 51°20' E 003°49'1 1.2
2017-Feb-15 07:33N 51°19' E 003°50'0 0.1
2017-Feb-15 06:31N 51°19' E 003°50'0 0.0
2017-Feb-15 05:31N 51°19' E 003°50'0 0.0
2017-Feb-15 04:31N 51°19' E 003°50'0 0.0
2017-Feb-15 03:31N 51°19' E 003°50'0 0.0
2017-Feb-15 02:31N 51°19' E 003°50'0 0.0
2017-Feb-15 01:31N 51°19' E 003°50'0 0.0
2017-Feb-15 00:28N 51°19' E 003°50'0 0.0
2017-Feb-14 23:31N 51°19' E 003°50'0 0.0
2017-Feb-14 22:31N 51°19' E 003°50'0 0.0
2017-Feb-14 21:31N 51°19' E 003°50'0 0.0
2017-Feb-14 20:31N 51°19' E 003°50'0 0.0
2017-Feb-14 19:31N 51°19' E 003°50'0 0.0
2017-Feb-14 18:31N 51°19' E 003°50'0 0.0
2017-Feb-14 17:31N 51°19' E 003°50'0 0.0
2017-Feb-14 16:31N 51°19' E 003°50'1 0.8
2017-Feb-14 15:34N 51°18' E 003°50'8 7.7
2017-Feb-14 14:33N 51°10' E 003°48'5 5.0
2017-Feb-14 13:31N 51°06' E 003°44'0 0.0
2017-Feb-14 12:31N 51°06' E 003°44'0 0.0
2017-Feb-14 11:25N 51°06' E 003°44'0 0.0
2017-Feb-14 10:31N 51°06' E 003°44'0 0.0
2017-Feb-14 09:31N 51°06' E 003°44'0 0.0
2017-Feb-14 08:31N 51°06' E 003°44'0 0.0
2017-Feb-14 07:31N 51°06' E 003°44'0 0.0
2017-Feb-14 06:31N 51°06' E 003°44'0 0.0
2017-Feb-14 05:31N 51°06' E 003°44'0 0.0
2017-Feb-14 04:31N 51°06' E 003°44'0 0.0
2017-Feb-14 03:31N 51°06' E 003°44'0 0.0
2017-Feb-14 02:31N 51°06' E 003°44'0 0.0
2017-Feb-14 01:31N 51°06' E 003°44'0 0.0
2017-Feb-14 00:31N 51°06' E 003°44'0 0.0
2017-Feb-13 23:31N 51°06' E 003°44'0 0.0
2017-Feb-13 22:31N 51°06' E 003°44'0 0.0
2017-Feb-13 21:31N 51°06' E 003°44'0 0.0
2017-Feb-13 20:31N 51°06' E 003°44'0 0.0
2017-Feb-13 19:31N 51°06' E 003°44'0 0.0
2017-Feb-13 18:31N 51°06' E 003°44'0 0.0
2017-Feb-13 17:31N 51°06' E 003°44'0 0.0
2017-Feb-13 16:31N 51°06' E 003°44'0 0.0
2017-Feb-13 15:31N 51°06' E 003°44'0 0.0
2017-Feb-13 14:31N 51°06' E 003°44'0 0.0
2017-Feb-13 13:31N 51°06' E 003°44'0 0.0
2017-Feb-13 12:28N 51°06' E 003°44'0 0.0
2017-Feb-13 11:31N 51°06' E 003°44'0 0.0
2017-Feb-13 10:31N 51°06' E 003°44'0 0.0
2017-Feb-13 09:31N 51°06' E 003°44'0 0.0
2017-Feb-13 08:31N 51°06' E 003°44'0 0.0
2017-Feb-13 07:25N 51°06' E 003°44'0 0.0
2017-Feb-13 06:31N 51°06' E 003°44'0 0.0
2017-Feb-13 05:31N 51°06' E 003°44'0 0.0
2017-Feb-13 04:31N 51°06' E 003°44'0 0.0
2017-Feb-13 03:31N 51°06' E 003°44'0 0.0
2017-Feb-13 02:25N 51°06' E 003°44'0 0.0
2017-Feb-13 01:31N 51°06' E 003°44'0 0.0
2017-Feb-13 00:31N 51°06' E 003°44'0 0.0
2017-Feb-12 23:31N 51°06' E 003°44'0 0.0
2017-Feb-12 22:31N 51°06' E 003°44'0 0.0
2017-Feb-12 21:31N 51°06' E 003°44'0 0.0
2017-Feb-12 20:31N 51°06' E 003°44'0 0.0
2017-Feb-12 19:28N 51°06' E 003°44'0 0.0
2017-Feb-12 18:31N 51°06' E 003°44'0 0.0
2017-Feb-12 17:31N 51°06' E 003°44'0 0.0
2017-Feb-12 16:25N 51°06' E 003°44'0 0.0
2017-Feb-12 15:25N 51°06' E 003°44'0 0.0
2017-Feb-12 14:31N 51°06' E 003°44'0 0.0
2017-Feb-12 13:31N 51°06' E 003°44'0 0.0
2017-Feb-12 12:31N 51°06' E 003°44'0 0.0
2017-Feb-12 11:25N 51°06' E 003°44'0 0.0
2017-Feb-12 10:34N 51°06' E 003°44'5 4.9
2017-Feb-12 09:34N 51°10' E 003°48'8 8.3
2017-Feb-12 08:33N 51°18' E 003°50'2 1.7
2017-Feb-12 07:33N 51°20' E 003°49'6 5.8
2017-Feb-12 06:33N 51°24' E 003°42'6 5.4
2017-Feb-12 05:32N 51°26' E 003°34'6 6.4
2017-Feb-12 04:33N 51°30' E 003°27'8 8.3
2017-Feb-12 03:33N 51°38' E 003°21'8 8.3
2017-Feb-12 02:33N 51°44' E 003°13'  
Track history (hours):
 
Tides and Currents Weather Stations Pressure Air Temp Water Temp Dewpoint Dewpoint Depression Visibility Wind Speed Wind Dir Waves Ship Positions

Rms Voerde

Last reported at 2017-Feb-21 20:06 UTC. Time now 2017-Feb-23 02:28 UTC.
Position N 36°01' W 005°11'.

Length 90 m; draft 4.3 m.

Type: Ship. MMSI: 304010905.

Date/timePositionNaut miles runAvg speedWind from/ knotsBaromVisibWave heightAir tempDewpointWater temp
2017-Feb-21 20:06N 36°01' W 005°11'4 6.5
2017-Feb-21 19:33N 36°01' W 005°15'6 6.3
2017-Feb-21 18:33N 35°59' W 005°23'7 7.0
2017-Feb-21 17:33N 35°57' W 005°31'8 7.5
2017-Feb-21 16:27N 35°55' W 005°41'277 6.0
2017-Feb-19 18:31N 38°55' W 010°06'10 9.9
2017-Feb-19 17:32N 39°04' W 010°06'1210.1
2017-Feb-19 16:22N 39°16' W 010°07'810.2
2017-Feb-19 15:33N 39°24' W 010°06'  
2017-Feb-16 15:32N 49°47' W 003°31'1111.0
2017-Feb-16 14:33N 49°53' W 003°16'1010.3
2017-Feb-16 13:33N 49°58' W 003°02'9 9.3
2017-Feb-16 12:33N 50°01' W 002°49'9610.3
2017-Feb-16 03:16N 50°28' W 000°24'810.6
2017-Feb-16 02:33N 50°30' W 000°13'10 9.7
2017-Feb-16 01:30N 50°33' E 000°03'8 8.7
2017-Feb-16 00:33N 50°35' E 000°15'38 9.5
2017-Feb-15 20:33N 50°53' E 001°07'1111.2
2017-Feb-15 19:33N 51°01' E 001°21'1010.0
2017-Feb-15 18:33N 51°07' E 001°33'8 8.4
2017-Feb-15 17:33N 51°12' E 001°43'8 8.1
2017-Feb-15 16:33N 51°19' E 001°51'8 7.8
2017-Feb-15 15:33N 51°25' E 001°59'9 9.1
2017-Feb-15 14:33N 51°22' E 002°13'9 8.7
2017-Feb-15 13:29N 51°23' E 002°28'1010.1
2017-Feb-15 12:29N 51°22' E 002°44'1011.2
2017-Feb-15 11:33N 51°24' E 003°00'1111.1
2017-Feb-15 10:33N 51°25' E 003°18'1211.7
2017-Feb-15 09:33N 51°26' E 003°36'1010.1
2017-Feb-15 08:33N 51°20' E 003°49'1 1.2
2017-Feb-15 07:33N 51°19' E 003°50'0 0.1
2017-Feb-15 06:31N 51°19' E 003°50'0 0.0
2017-Feb-15 05:31N 51°19' E 003°50'0 0.0
2017-Feb-15 04:31N 51°19' E 003°50'0 0.0
2017-Feb-15 03:31N 51°19' E 003°50'0 0.0
2017-Feb-15 02:31N 51°19' E 003°50'0 0.0
2017-Feb-15 01:31N 51°19' E 003°50'0 0.0
2017-Feb-15 00:28N 51°19' E 003°50'0 0.0
2017-Feb-14 23:31N 51°19' E 003°50'0 0.0
2017-Feb-14 22:31N 51°19' E 003°50'0 0.0
2017-Feb-14 21:31N 51°19' E 003°50'0 0.0
2017-Feb-14 20:31N 51°19' E 003°50'0 0.0
2017-Feb-14 19:31N 51°19' E 003°50'0 0.0
2017-Feb-14 18:31N 51°19' E 003°50'0 0.0
2017-Feb-14 17:31N 51°19' E 003°50'0 0.0
2017-Feb-14 16:31N 51°19' E 003°50'1 0.8
2017-Feb-14 15:34N 51°18' E 003°50'8 7.7
2017-Feb-14 14:33N 51°10' E 003°48'5 5.0
2017-Feb-14 13:31N 51°06' E 003°44'0 0.0
2017-Feb-14 12:31N 51°06' E 003°44'0 0.0
2017-Feb-14 11:25N 51°06' E 003°44'0 0.0
2017-Feb-14 10:31N 51°06' E 003°44'0 0.0
2017-Feb-14 09:31N 51°06' E 003°44'0 0.0
2017-Feb-14 08:31N 51°06' E 003°44'0 0.0
2017-Feb-14 07:31N 51°06' E 003°44'0 0.0
2017-Feb-14 06:31N 51°06' E 003°44'0 0.0
2017-Feb-14 05:31N 51°06' E 003°44'0 0.0
2017-Feb-14 04:31N 51°06' E 003°44'0 0.0
2017-Feb-14 03:31N 51°06' E 003°44'0 0.0
2017-Feb-14 02:31N 51°06' E 003°44'0 0.0
2017-Feb-14 01:31N 51°06' E 003°44'0 0.0
2017-Feb-14 00:31N 51°06' E 003°44'0 0.0
2017-Feb-13 23:31N 51°06' E 003°44'0 0.0
2017-Feb-13 22:31N 51°06' E 003°44'0 0.0
2017-Feb-13 21:31N 51°06' E 003°44'0 0.0
2017-Feb-13 20:31N 51°06' E 003°44'0 0.0
2017-Feb-13 19:31N 51°06' E 003°44'0 0.0
2017-Feb-13 18:31N 51°06' E 003°44'0 0.0
2017-Feb-13 17:31N 51°06' E 003°44'0 0.0
2017-Feb-13 16:31N 51°06' E 003°44'0 0.0
2017-Feb-13 15:31N 51°06' E 003°44'0 0.0
2017-Feb-13 14:31N 51°06' E 003°44'0 0.0
2017-Feb-13 13:31N 51°06' E 003°44'0 0.0
2017-Feb-13 12:28N 51°06' E 003°44'0 0.0
2017-Feb-13 11:31N 51°06' E 003°44'0 0.0
2017-Feb-13 10:31N 51°06' E 003°44'0 0.0
2017-Feb-13 09:31N 51°06' E 003°44'0 0.0
2017-Feb-13 08:31N 51°06' E 003°44'0 0.0
2017-Feb-13 07:25N 51°06' E 003°44'0 0.0
2017-Feb-13 06:31N 51°06' E 003°44'0 0.0
2017-Feb-13 05:31N 51°06' E 003°44'0 0.0
2017-Feb-13 04:31N 51°06' E 003°44'0 0.0
2017-Feb-13 03:31N 51°06' E 003°44'0 0.0
2017-Feb-13 02:25N 51°06' E 003°44'0 0.0
2017-Feb-13 01:31N 51°06' E 003°44'0 0.0
2017-Feb-13 00:31N 51°06' E 003°44'0 0.0
2017-Feb-12 23:31N 51°06' E 003°44'0 0.0
2017-Feb-12 22:31N 51°06' E 003°44'0 0.0
2017-Feb-12 21:31N 51°06' E 003°44'0 0.0
2017-Feb-12 20:31N 51°06' E 003°44'0 0.0
2017-Feb-12 19:28N 51°06' E 003°44'0 0.0
2017-Feb-12 18:31N 51°06' E 003°44'0 0.0
2017-Feb-12 17:31N 51°06' E 003°44'0 0.0
2017-Feb-12 16:25N 51°06' E 003°44'0 0.0
2017-Feb-12 15:25N 51°06' E 003°44'0 0.0
2017-Feb-12 14:31N 51°06' E 003°44'0 0.0
2017-Feb-12 13:31N 51°06' E 003°44'0 0.0
2017-Feb-12 12:31N 51°06' E 003°44'0 0.0
2017-Feb-12 11:25N 51°06' E 003°44'0 0.0
2017-Feb-12 10:34N 51°06' E 003°44'5 4.9
2017-Feb-12 09:34N 51°10' E 003°48'8 8.3
2017-Feb-12 08:33N 51°18' E 003°50'2 1.7
2017-Feb-12 07:33N 51°20' E 003°49'6 5.8
2017-Feb-12 06:33N 51°24' E 003°42'6 5.4
2017-Feb-12 05:32N 51°26' E 003°34'6 6.4
2017-Feb-12 04:33N 51°30' E 003°27'8 8.3
2017-Feb-12 03:33N 51°38' E 003°21'8 8.3
2017-Feb-12 02:33N 51°44' E 003°13'  

Dump ship's entire track history